| time (UTC) | temp C | wind direction | speed KPH | gust KPH | rain 1hr cm | rain 24hr cm | rain mn cm | humidity % | barometer mb |
| 20260507185636 | 14 | 215 | 1.6 | 9.7 | 0.00 | 0.00 | 0.00 | 46 | 1011.5 |
| 20260507185132 | 14 | 233 | 4.8 | 11.3 | 0.00 | 0.00 | 0.00 | 45 | 1011.6 |
| 20260507184631 | 13 | 264 | 3.2 | 9.7 | 0.00 | 0.00 | 0.00 | 47 | 1011.5 |
| 20260507184128 | 15 | 290 | 6.4 | 9.7 | 0.00 | 0.00 | 0.00 | 44 | 1011.7 |
| 20260507183624 | 14 | 300 | 8.0 | 11.3 | 0.00 | 0.00 | 0.00 | 44 | 1011.4 |
| 20260507183121 | 15 | 178 | 4.8 | 12.9 | 0.00 | 0.00 | 0.00 | 46 | 1011.6 |
| 20260507182618 | 15 | 177 | 6.4 | 12.9 | 0.00 | 0.00 | 0.00 | 42 | 1011.4 |
| 20260507182114 | 15 | 229 | 6.4 | 11.3 | 0.00 | 0.00 | 0.00 | 44 | 1011.7 |
| 20260507181611 | 14 | 178 | 3.2 | 11.3 | 0.00 | 0.00 | 0.00 | 47 | 1011.6 |
| 20260507181107 | 14 | 224 | 1.6 | 6.4 | 0.00 | 0.00 | 0.00 | 46 | 1011.8 |
| 20260507180603 | 13 | 246 | 3.2 | 12.9 | 0.00 | 0.00 | 0.00 | 50 | 1011.8 |
| 20260507180101 | 13 | 206 | 1.6 | 6.4 | 0.00 | 0.00 | 0.00 | 47 | 1011.9 |
| 20260507175556 | 13 | 267 | 4.8 | 12.9 | 0.00 | 0.00 | 0.00 | 45 | 1011.9 |
| 20260507175054 | 13 | 191 | 4.8 | 11.3 | 0.00 | 0.00 | 0.00 | 44 | 1012.0 |
| 20260507174551 | 14 | 171 | 8.0 | 9.7 | 0.00 | 0.00 | 0.00 | 44 | 1012.3 |
| 20260507174049 | 13 | 280 | 3.2 | 4.8 | 0.00 | 0.00 | 0.00 | 44 | 1011.9 |
| 20260507173546 | 13 | 291 | 1.6 | 9.7 | 0.00 | 0.00 | 0.00 | 47 | 1012.1 |
| 20260507173043 | 14 | 211 | 4.8 | 12.9 | 0.00 | 0.00 | 0.00 | 44 | 1012.3 |
| 20260507172538 | 14 | 232 | 0.0 | 12.9 | 0.00 | 0.00 | 0.00 | 46 | 1012.1 |
| 20260507172036 | 13 | 173 | 8.0 | 14.5 | 0.00 | 0.00 | 0.00 | 45 | 1012.3 |
| 20260507171531 | 13 | 236 | 0.0 | 9.7 | 0.00 | 0.00 | 0.00 | 50 | 1012.4 |
| 20260507171028 | 15 | 204 | 3.2 | 9.7 | 0.00 | 0.00 | 0.00 | 46 | 1012.4 |
| 20260507170525 | 14 | 239 | 6.4 | 16.1 | 0.00 | 0.00 | 0.00 | 43 | 1012.5 |
| 20260507170022 | 13 | 262 | 3.2 | 12.9 | 0.00 | 0.00 | 0.00 | 45 | 1012.6 |
| 20260507165518 | 12 | 275 | 1.6 | 9.7 | 0.00 | 0.00 | 0.00 | 45 | 1012.6 |
| 20260507165015 | 13 | 290 | 4.8 | 14.5 | 0.00 | 0.00 | 0.00 | 46 | 1012.9 |
| 20260507164511 | 13 | 185 | 6.4 | 12.9 | 0.00 | 0.00 | 0.00 | 47 | 1012.8 |
| 20260507164008 | 13 | 219 | 6.4 | 9.7 | 0.00 | 0.00 | 0.00 | 45 | 1012.8 |
| 20260507163505 | 13 | 220 | 3.2 | 4.8 | 0.00 | 0.00 | 0.00 | 48 | 1012.9 |
| 20260507163003 | 14 | 277 | 4.8 | 6.4 | 0.00 | 0.00 | 0.00 | 43 | 1012.8 |
| 20260507162457 | 13 | 233 | 1.6 | 6.4 | 0.00 | 0.00 | 0.00 | 54 | 1012.8 |
| 20260507161955 | 13 | 303 | 4.8 | 9.7 | 0.00 | 0.00 | 0.00 | 46 | 1012.9 |
| 20260507161451 | 12 | 215 | 0.0 | 4.8 | 0.00 | 0.00 | 0.00 | 44 | 1013.0 |
| 20260507160948 | 13 | 202 | 3.2 | 6.4 | 0.00 | 0.00 | 0.00 | 45 | 1013.0 |
| 20260507160444 | 12 | 306 | 1.6 | 6.4 | 0.00 | 0.00 | 0.00 | 48 | 1013.2 |
| 20260507155939 | 12 | 244 | 4.8 | 9.7 | 0.00 | 0.00 | 0.00 | 49 | 1013.0 |
| 20260507155436 | 12 | 280 | 3.2 | 4.8 | 0.00 | 0.00 | 0.00 | 47 | 1013.0 |
| 20260507154933 | 12 | 265 | 1.6 | 12.9 | 0.00 | 0.00 | 0.00 | 46 | 1013.0 |
| 20260507154429 | 12 | 215 | 6.4 | 11.3 | 0.00 | 0.00 | 0.00 | 47 | 1013.3 |
| 20260507153927 | 12 | 304 | 4.8 | 9.7 | 0.00 | 0.00 | 0.00 | 49 | 1013.2 |
| 20260507153423 | 12 | 240 | 9.7 | 12.9 | 0.00 | 0.00 | 0.00 | 45 | 1013.3 |
| 20260507152919 | 12 | 247 | 6.4 | 11.3 | 0.00 | 0.00 | 0.00 | 46 | 1013.2 |
| 20260507152416 | 11 | 222 | 3.2 | 9.7 | 0.00 | 0.00 | 0.00 | 47 | 1013.4 |
| 20260507151912 | 12 | 274 | 6.4 | 9.7 | 0.00 | 0.00 | 0.00 | 46 | 1013.3 |
| 20260507151409 | 11 | 235 | 3.2 | 11.3 | 0.00 | 0.00 | 0.00 | 47 | 1013.6 |
| 20260507150906 | 12 | 230 | 6.4 | 9.7 | 0.00 | 0.00 | 0.00 | 48 | 1013.5 |
| 20260507150402 | 11 | 215 | 1.6 | 6.4 | 0.00 | 0.00 | 0.00 | 46 | 1013.7 |
| 20260507145859 | 12 | 216 | 6.4 | 9.7 | 0.00 | 0.00 | 0.00 | 48 | 1013.8 |
| 20260507145355 | 11 | 237 | 0.0 | 3.2 | 0.00 | 0.00 | 0.00 | 46 | 1013.7 |
| 20260507144852 | 12 | 306 | 8.0 | 11.3 | 0.00 | 0.00 | 0.00 | 47 | 1013.9 |
| 20260507144349 | 11 | 253 | 0.0 | 9.7 | 0.00 | 0.00 | 0.00 | 47 | 1013.8 |
| 20260507143846 | 11 | 232 | 4.8 | 11.3 | 0.00 | 0.00 | 0.00 | 49 | 1014.1 |
| 20260507143343 | 11 | 244 | 3.2 | 6.4 | 0.00 | 0.00 | 0.00 | 48 | 1014.0 |
| 20260507142839 | 11 | 270 | 6.4 | 11.3 | 0.00 | 0.00 | 0.00 | 46 | 1013.9 |
| 20260507142336 | 11 | 233 | 4.8 | 9.7 | 0.00 | 0.00 | 0.00 | 50 | 1014.0 |
| 20260507141832 | 11 | 234 | 6.4 | 16.1 | 0.00 | 0.00 | 0.00 | 49 | 1014.2 |
| 20260507141329 | 11 | 268 | 3.2 | 6.4 | 0.00 | 0.00 | 0.00 | 50 | 1014.4 |
| 20260507140826 | 11 | 270 | 0.0 | 3.2 | 0.00 | 0.00 | 0.00 | 49 | 1014.2 |
| 20260507140322 | 11 | 239 | 0.0 | 9.7 | 0.00 | 0.00 | 0.00 | 51 | 1014.5 |
| 20260507135820 | 11 | 217 | 3.2 | 9.7 | 0.00 | 0.00 | 0.00 | 50 | 1014.5 |
| 20260507135317 | 10 | 216 | 1.6 | 9.7 | 0.00 | 0.00 | 0.00 | 51 | 1014.8 |
| 20260507134814 | 10 | 210 | 3.2 | 9.7 | 0.00 | 0.00 | 0.00 | 51 | 1014.5 |
| 20260507134310 | 11 | 287 | 6.4 | 6.4 | 0.00 | 0.00 | 0.00 | 52 | 1014.7 |
| 20260507133806 | 10 | 255 | 6.4 | 11.3 | 0.00 | 0.00 | 0.00 | 52 | 1014.6 |
| 20260507133302 | 11 | 231 | 3.2 | 9.7 | 0.00 | 0.00 | 0.00 | 51 | 1014.6 |
| 20260507132801 | 10 | 275 | 3.2 | 4.8 | 0.00 | 0.00 | 0.00 | 52 | 1014.6 |
| 20260507132257 | 10 | 222 | 0.0 | 4.8 | 0.00 | 0.00 | 0.00 | 55 | 1014.7 |
| 20260507131754 | 10 | 287 | 0.0 | 0.0 | 0.00 | 0.00 | 0.00 | 62 | 1014.5 |
| 20260507131251 | 8 | 288 | 0.0 | 3.2 | 0.00 | 0.00 | 0.00 | 65 | 1014.6 |
| 20260507130747 | 10 | 288 | 1.6 | 6.4 | 0.00 | 0.00 | 0.00 | 62 | 1014.7 |
| 20260507130245 | 9 | 288 | 0.0 | 1.6 | 0.00 | 0.00 | 0.00 | 62 | 1014.6 |
| 20260507125744 | 9 | 288 | 0.0 | 3.2 | 0.00 | 0.00 | 0.00 | 63 | 1014.7 |
| 20260507125241 | 9 | 288 | 1.6 | 3.2 | 0.00 | 0.00 | 0.00 | 62 | 1014.7 |
| 20260507124737 | 8 | 288 | 0.0 | 1.6 | 0.00 | 0.00 | 0.00 | 67 | 1014.8 |
| 20260507124234 | 8 | 288 | 1.6 | 4.8 | 0.00 | 0.00 | 0.00 | 69 | 1014.8 |
| 20260507123733 | 8 | 288 | 1.6 | 3.2 | 0.00 | 0.00 | 0.00 | 75 | 1014.7 |
| 20260507123230 | 8 | 288 | 1.6 | 3.2 | 0.00 | 0.00 | 0.00 | 74 | 1014.8 |
| 20260507122725 | 8 | 288 | 1.6 | 3.2 | 0.00 | 0.00 | 0.00 | 76 | 1014.9 |
| 20260507122221 | 8 | 288 | 0.0 | 0.0 | 0.00 | 0.00 | 0.00 | 76 | 1014.8 |
| 20260507121717 | 7 | 288 | 0.0 | 0.0 | 0.00 | 0.00 | 0.00 | 79 | 1014.8 |
| 20260507121213 | 7 | 289 | 0.0 | 0.0 | 0.00 | 0.00 | 0.00 | 81 | 1014.8 |
| 20260507120709 | 7 | 289 | 0.0 | 0.0 | 0.00 | 0.00 | 0.00 | 82 | 1014.8 |
| 20260507120207 | 6 | 289 | 0.0 | 0.0 | 0.00 | 0.00 | 0.00 | 86 | 1014.8 |
| 20260507115702 | 5 | 289 | 0.0 | 0.0 | 0.00 | 0.00 | 0.00 | 90 | 1014.9 |
| 20260507115158 | 4 | 289 | 0.0 | 1.6 | 0.00 | 0.00 | 0.00 | 95 | 1015.0 |
| 20260507114654 | 4 | 289 | 0.0 | 0.0 | 0.00 | 0.00 | 0.00 | 98 | 1014.9 |
| 20260507114151 | 3 | 289 | 0.0 | 0.0 | 0.00 | 0.00 | 0.00 | 98 | 1014.8 |
| 20260507113649 | 3 | 289 | 0.0 | 0.0 | 0.00 | 0.00 | 0.00 | 99 | 1014.9 |
| 20260507113146 | 2 | 289 | 0.0 | 0.0 | 0.00 | 0.00 | 0.00 | 99 | 1014.7 |
| 20260507112644 | 2 | 289 | 0.0 | 0.0 | 0.00 | 0.00 | 0.00 | 99 | 1014.7 |
| 20260507112140 | 2 | 289 | 0.0 | 0.0 | 0.00 | 0.00 | 0.00 | 98 | 1014.7 |
| 20260507111637 | 1 | 289 | 0.0 | 0.0 | 0.00 | 0.00 | 0.00 | 98 | 1014.4 |
| 20260507111134 | 1 | 289 | 0.0 | 0.0 | 0.00 | 0.00 | 0.00 | 98 | 1014.5 |
| 20260507110630 | 1 | 289 | 0.0 | 0.0 | 0.00 | 0.00 | 0.00 | 98 | 1014.4 |
| 20260507110127 | 1 | 289 | 0.0 | 0.0 | 0.00 | 0.00 | 0.00 | 98 | 1014.1 |
| 20260507105624 | 0 | 289 | 0.0 | 0.0 | 0.00 | 0.00 | 0.00 | 98 | 1014.4 |
| 20260507105119 | 0 | 289 | 0.0 | 0.0 | 0.00 | 0.00 | 0.00 | 98 | 1014.1 |
| 20260507104617 | 0 | 289 | 0.0 | 0.0 | 0.00 | 0.00 | 0.00 | 97 | 1014.1 |
| 20260507104113 | 0 | 289 | 0.0 | 0.0 | 0.00 | 0.00 | 0.00 | 97 | 1014.1 |
| 20260507103610 | 0 | 289 | 0.0 | 0.0 | 0.00 | 0.00 | 0.00 | 97 | 1014.2 |
| 20260507103107 | 0 | 289 | 0.0 | 0.0 | 0.00 | 0.00 | 0.00 | 97 | 1013.9 |
| 20260507102603 | 0 | 289 | 0.0 | 0.0 | 0.00 | 0.00 | 0.00 | 97 | 1014.0 |
| 20260507102059 | 0 | 289 | 0.0 | 0.0 | 0.00 | 0.00 | 0.00 | 97 | 1013.9 |
| 20260507101554 | 0 | 289 | 0.0 | 0.0 | 0.00 | 0.00 | 0.00 | 97 | 1013.8 |
| 20260507101051 | 0 | 289 | 0.0 | 0.0 | 0.00 | 0.00 | 0.00 | 97 | 1013.8 |
| 20260507100548 | 0 | 289 | 0.0 | 0.0 | 0.00 | 0.00 | 0.00 | 97 | 1014.0 |
| 20260507100047 | 0 | 289 | 0.0 | 0.0 | 0.00 | 0.00 | 0.00 | 96 | 1013.9 |
| 20260507095544 | 0 | 289 | 0.0 | 0.0 | 0.00 | 0.00 | 0.00 | 96 | 1013.9 |
| 20260507095041 | 0 | 289 | 0.0 | 0.0 | 0.00 | 0.00 | 0.00 | 96 | 1013.7 |
| 20260507094537 | 0 | 289 | 0.0 | 0.0 | 0.00 | 0.00 | 0.00 | 96 | 1013.9 |
| 20260507094034 | 0 | 289 | 0.0 | 0.0 | 0.00 | 0.00 | 0.00 | 96 | 1013.8 |
| 20260507093531 | 1 | 289 | 0.0 | 0.0 | 0.00 | 0.00 | 0.00 | 95 | 1013.8 |
| 20260507093030 | 1 | 289 | 0.0 | 0.0 | 0.00 | 0.00 | 0.00 | 95 | 1013.9 |
| 20260507092526 | 1 | 289 | 0.0 | 0.0 | 0.00 | 0.00 | 0.00 | 95 | 1014.0 |
| 20260507092023 | 1 | 289 | 0.0 | 0.0 | 0.00 | 0.00 | 0.00 | 95 | 1014.1 |
| 20260507091520 | 1 | 289 | 0.0 | 0.0 | 0.00 | 0.00 | 0.00 | 94 | 1013.9 |
| 20260507091016 | 1 | 289 | 0.0 | 0.0 | 0.00 | 0.00 | 0.00 | 94 | 1013.9 |
| 20260507090512 | 1 | 289 | 0.0 | 0.0 | 0.00 | 0.00 | 0.00 | 93 | 1014.0 |
| 20260507090009 | 2 | 289 | 0.0 | 0.0 | 0.00 | 0.00 | 0.00 | 93 | 1013.9 |
| 20260507085506 | 2 | 289 | 0.0 | 0.0 | 0.00 | 0.00 | 0.00 | 92 | 1013.8 |
| 20260507085002 | 2 | 289 | 0.0 | 0.0 | 0.00 | 0.00 | 0.00 | 92 | 1013.9 |
| 20260507084459 | 2 | 289 | 0.0 | 0.0 | 0.00 | 0.00 | 0.00 | 91 | 1013.8 |
| 20260507083956 | 3 | 289 | 0.0 | 0.0 | 0.00 | 0.00 | 0.00 | 90 | 1013.8 |
| 20260507083452 | 3 | 289 | 0.0 | 0.0 | 0.00 | 0.00 | 0.00 | 89 | 1013.7 |
| 20260507082949 | 3 | 289 | 0.0 | 0.0 | 0.00 | 0.00 | 0.00 | 88 | 1013.8 |
| 20260507082445 | 5 | 289 | 0.0 | 0.0 | 0.00 | 0.00 | 0.00 | 87 | 1013.7 |
| 20260507081942 | 5 | 289 | 0.0 | 0.0 | 0.00 | 0.00 | 0.00 | 85 | 1013.6 |
| 20260507081438 | 5 | 289 | 0.0 | 0.0 | 0.00 | 0.00 | 0.00 | 82 | 1013.8 |
| 20260507080935 | 6 | 289 | 0.0 | 1.6 | 0.00 | 0.00 | 0.00 | 78 | 1013.7 |
| 20260507080432 | 6 | 289 | 0.0 | 0.0 | 0.00 | 0.00 | 0.00 | 80 | 1013.6 |
| 20260507075926 | 6 | 289 | 1.6 | 3.2 | 0.00 | 0.00 | 0.00 | 72 | 1013.7 |
| 20260507075423 | 6 | 289 | 0.0 | 1.6 | 0.00 | 0.00 | 0.00 | 75 | 1013.7 |
| 20260507074919 | 6 | 289 | 0.0 | 0.0 | 0.00 | 0.00 | 0.00 | 73 | 1013.9 |
| 20260507074416 | 6 | 289 | 0.0 | 0.0 | 0.00 | 0.00 | 0.00 | 74 | 1013.9 |
| 20260507073909 | 6 | 289 | 1.6 | 3.2 | 0.00 | 0.00 | 0.00 | 72 | 1013.8 |
| 20260507073405 | 7 | 289 | 0.0 | 0.0 | 0.00 | 0.00 | 0.00 | 73 | 1013.7 |
| 20260507072902 | 7 | 289 | 3.2 | 3.2 | 0.00 | 0.00 | 0.00 | 72 | 1013.6 |
| 20260507072359 | 7 | 289 | 1.6 | 3.2 | 0.00 | 0.00 | 0.00 | 74 | 1013.7 |
| 20260507071856 | 6 | 288 | 1.6 | 3.2 | 0.00 | 0.00 | 0.00 | 74 | 1013.7 |
| 20260507071353 | 6 | 288 | 0.0 | 0.0 | 0.00 | 0.00 | 0.00 | 77 | 1013.4 |
| 20260507070849 | 6 | 288 | 0.0 | 0.0 | 0.00 | 0.00 | 0.00 | 74 | 1013.7 |
| 20260507070347 | 6 | 288 | 0.0 | 0.0 | 0.00 | 0.00 | 0.00 | 74 | 1013.8 |
| 20260507065844 | 6 | 288 | 0.0 | 0.0 | 0.00 | 0.00 | 0.00 | 79 | 1013.8 |
| 20260507065340 | 6 | 288 | 0.0 | 0.0 | 0.00 | 0.00 | 0.00 | 81 | 1013.8 |
| 20260507064838 | 6 | 288 | 0.0 | 0.0 | 0.00 | 0.00 | 0.00 | 75 | 1013.8 |
| 20260507064336 | 6 | 288 | 0.0 | 1.6 | 0.00 | 0.00 | 0.00 | 75 | 1013.8 |
| 20260507063833 | 6 | 288 | 0.0 | 1.6 | 0.00 | 0.00 | 0.00 | 75 | 1013.6 |
| 20260507063330 | 6 | 288 | 0.0 | 1.6 | 0.00 | 0.00 | 0.00 | 78 | 1013.7 |
| 20260507062827 | 6 | 288 | 0.0 | 0.0 | 0.00 | 0.00 | 0.00 | 86 | 1013.9 |
| 20260507062324 | 6 | 288 | 0.0 | 0.0 | 0.00 | 0.00 | 0.00 | 87 | 1014.0 |
| 20260507061822 | 6 | 288 | 0.0 | 0.0 | 0.00 | 0.00 | 0.00 | 89 | 1014.2 |
| 20260507061320 | 6 | 288 | 0.0 | 0.0 | 0.00 | 0.00 | 0.00 | 88 | 1014.1 |
| 20260507060818 | 6 | 288 | 0.0 | 0.0 | 0.00 | 0.00 | 0.00 | 87 | 1014.1 |
| 20260507060314 | 6 | 288 | 0.0 | 0.0 | 0.00 | 0.00 | 0.00 | 85 | 1014.1 |
| 20260507055811 | 6 | 288 | 0.0 | 0.0 | 0.00 | 0.00 | 0.00 | 85 | 1014.1 |
| 20260507055306 | 6 | 288 | 0.0 | 0.0 | 0.00 | 0.00 | 0.00 | 83 | 1014.4 |
| 20260507054803 | 6 | 288 | 0.0 | 0.0 | 0.00 | 0.00 | 0.00 | 85 | 1014.2 |
| 20260507054259 | 6 | 288 | 0.0 | 0.0 | 0.00 | 0.00 | 0.00 | 87 | 1014.1 |
| 20260507053757 | 6 | 288 | 0.0 | 0.0 | 0.00 | 0.00 | 0.00 | 89 | 1014.2 |
| 20260507053254 | 7 | 288 | 0.0 | 0.0 | 0.00 | 0.00 | 0.00 | 89 | 1014.4 |
| 20260507052753 | 7 | 288 | 0.0 | 0.0 | 0.00 | 0.00 | 0.00 | 87 | 1014.5 |
| 20260507052249 | 7 | 288 | 0.0 | 0.0 | 0.00 | 0.00 | 0.00 | 84 | 1014.6 |
| 20260507051747 | 7 | 288 | 0.0 | 0.0 | 0.00 | 0.00 | 0.00 | 82 | 1014.5 |
| 20260507051244 | 7 | 288 | 0.0 | 0.0 | 0.00 | 0.00 | 0.00 | 80 | 1014.5 |
| 20260507050741 | 7 | 288 | 0.0 | 0.0 | 0.00 | 0.00 | 0.00 | 79 | 1014.5 |
| 20260507050237 | 7 | 288 | 0.0 | 0.0 | 0.00 | 0.00 | 0.00 | 79 | 1014.6 |
| 20260507045734 | 7 | 288 | 0.0 | 0.0 | 0.00 | 0.00 | 0.00 | 77 | 1014.4 |
| 20260507045230 | 7 | 288 | 0.0 | 0.0 | 0.00 | 0.00 | 0.00 | 79 | 1014.5 |
| 20260507044728 | 7 | 288 | 0.0 | 0.0 | 0.00 | 0.00 | 0.00 | 80 | 1014.4 |
| 20260507044224 | 7 | 288 | 0.0 | 1.6 | 0.00 | 0.00 | 0.00 | 78 | 1014.5 |
| 20260507043720 | 7 | 288 | 0.0 | 0.0 | 0.00 | 0.00 | 0.00 | 80 | 1014.4 |
| 20260507043217 | 7 | 288 | 0.0 | 0.0 | 0.00 | 0.00 | 0.00 | 80 | 1014.2 |
| 20260507042714 | 8 | 288 | 0.0 | 0.0 | 0.00 | 0.00 | 0.00 | 80 | 1014.6 |
| 20260507042208 | 8 | 288 | 0.0 | 0.0 | 0.00 | 0.00 | 0.00 | 79 | 1014.5 |
| 20260507041706 | 8 | 288 | 0.0 | 1.6 | 0.00 | 0.00 | 0.00 | 79 | 1014.5 |
| 20260507041203 | 8 | 288 | 0.0 | 0.0 | 0.00 | 0.00 | 0.00 | 80 | 1014.1 |
| 20260507040700 | 8 | 288 | 0.0 | 1.6 | 0.00 | 0.00 | 0.00 | 80 | 1014.5 |
| 20260507040155 | 8 | 288 | 0.0 | 3.2 | 0.00 | 0.00 | 0.00 | 79 | 1014.7 |
| 20260507035652 | 8 | 288 | 1.6 | 1.6 | 0.00 | 0.33 | 0.33 | 80 | 1014.4 |
| 20260507035148 | 8 | 288 | 0.0 | 1.6 | 0.00 | 0.33 | 0.33 | 79 | 1014.4 |
| 20260507034645 | 8 | 288 | 0.0 | 1.6 | 0.00 | 0.33 | 0.33 | 80 | 1014.4 |
| 20260507034142 | 8 | 288 | 0.0 | 1.6 | 0.00 | 0.33 | 0.33 | 80 | 1014.6 |
| 20260507033641 | 8 | 288 | 0.0 | 0.0 | 0.00 | 0.33 | 0.33 | 82 | 1014.6 |
| 20260507033137 | 8 | 288 | 4.8 | 4.8 | 0.00 | 0.33 | 0.33 | 82 | 1014.4 |
| 20260507032635 | 8 | 289 | 1.6 | 3.2 | 0.00 | 0.33 | 0.33 | 81 | 1014.2 |
| 20260507032131 | 8 | 288 | 0.0 | 4.8 | 0.00 | 0.33 | 0.33 | 82 | 1014.2 |
| 20260507031628 | 8 | 282 | 0.0 | 0.0 | 0.00 | 0.33 | 0.33 | 85 | 1014.0 |
| 20260507031124 | 8 | 282 | 0.0 | 0.0 | 0.00 | 0.33 | 0.33 | 84 | 1013.9 |
| 20260507030621 | 8 | 282 | 0.0 | 0.0 | 0.00 | 0.33 | 0.33 | 85 | 1014.1 |
| 20260507030119 | 8 | 282 | 1.6 | 3.2 | 0.00 | 0.33 | 0.33 | 83 | 1014.0 |
| 20260507025616 | 8 | 281 | 1.6 | 1.6 | 0.00 | 0.33 | 0.33 | 84 | 1014.0 |
| 20260507025113 | 8 | 281 | 1.6 | 3.2 | 0.00 | 0.33 | 0.33 | 83 | 1013.9 |
| 20260507024611 | 8 | 275 | 1.6 | 1.6 | 0.00 | 0.33 | 0.33 | 84 | 1014.1 |
| 20260507024107 | 8 | 275 | 0.0 | 0.0 | 0.00 | 0.33 | 0.33 | 83 | 1014.2 |
| 20260507023602 | 8 | 269 | 1.6 | 3.2 | 0.00 | 0.33 | 0.33 | 84 | 1014.1 |
| 20260507023100 | 8 | 208 | 4.8 | 6.4 | 0.00 | 0.33 | 0.33 | 84 | 1014.0 |
| 20260507022557 | 8 | 241 | 0.0 | 0.0 | 0.00 | 0.33 | 0.33 | 86 | 1014.2 |
| 20260507022052 | 8 | 241 | 0.0 | 0.0 | 0.00 | 0.33 | 0.33 | 86 | 1014.0 |
| 20260507021549 | 8 | 241 | 0.0 | 0.0 | 0.00 | 0.33 | 0.33 | 86 | 1013.7 |
| 20260507021045 | 9 | 255 | 0.0 | 3.2 | 0.00 | 0.33 | 0.33 | 85 | 1013.5 |
| 20260507020543 | 9 | 256 | 0.0 | 0.0 | 0.00 | 0.33 | 0.33 | 86 | 1013.2 |
| 20260507020039 | 9 | 243 | 0.0 | 0.0 | 0.00 | 0.33 | 0.33 | 88 | 1013.2 |
| 20260507015538 | 9 | 243 | 0.0 | 0.0 | 0.00 | 0.33 | 0.33 | 88 | 1013.2 |
| 20260507015035 | 9 | 243 | 0.0 | 1.6 | 0.00 | 0.33 | 0.33 | 88 | 1013.3 |
| 20260507014531 | 9 | 242 | 3.2 | 3.2 | 0.00 | 0.33 | 0.33 | 88 | 1013.4 |
| 20260507014027 | 9 | 243 | 0.0 | 1.6 | 0.00 | 0.33 | 0.33 | 88 | 1013.4 |
| 20260507013524 | 9 | 243 | 1.6 | 9.7 | 0.00 | 0.33 | 0.33 | 87 | 1013.3 |
| 20260507013021 | 9 | 261 | 0.0 | 0.0 | 0.00 | 0.33 | 0.33 | 88 | 1013.1 |
| 20260507012518 | 9 | 261 | 0.0 | 0.0 | 0.00 | 0.33 | 0.33 | 88 | 1013.3 |
| 20260507012009 | 9 | 261 | 0.0 | 3.2 | 0.00 | 0.33 | 0.33 | 87 | 1013.3 |
| 20260507011507 | 9 | 260 | 0.0 | 1.6 | 0.00 | 0.33 | 0.33 | 87 | 1013.4 |
| 20260507011002 | 9 | 260 | 1.6 | 3.2 | 0.00 | 0.33 | 0.33 | 87 | 1013.2 |
| 20260507010456 | 9 | 260 | 0.0 | 1.6 | 0.00 | 0.33 | 0.33 | 87 | 1013.4 |
| 20260507005953 | 9 | 261 | 1.6 | 3.2 | 0.00 | 0.33 | 0.33 | 87 | 1013.4 |
| 20260507005450 | 9 | 260 | 1.6 | 3.2 | 0.00 | 0.33 | 0.33 | 86 | 1013.7 |
| 20260507004947 | 9 | 260 | 0.0 | 6.4 | 0.00 | 0.33 | 0.33 | 87 | 1013.5 |
| 20260507004443 | 9 | 257 | 1.6 | 3.2 | 0.00 | 0.33 | 0.33 | 87 | 1013.7 |
| 20260507003941 | 9 | 229 | 3.2 | 3.2 | 0.00 | 0.33 | 0.33 | 88 | 1013.9 |
| 20260507003436 | 9 | 229 | 0.0 | 0.0 | 0.00 | 0.33 | 0.33 | 88 | 1013.6 |
| 20260507002931 | 9 | 229 | 0.0 | 1.6 | 0.00 | 0.33 | 0.33 | 88 | 1013.9 |
| 20260507002428 | 9 | 229 | 3.2 | 3.2 | 0.00 | 0.33 | 0.33 | 88 | 1014.0 |
| 20260507001925 | 9 | 232 | 0.0 | 1.6 | 0.00 | 0.33 | 0.33 | 89 | 1013.7 |
| 20260507001422 | 9 | 232 | 1.6 | 1.6 | 0.00 | 0.33 | 0.33 | 88 | 1013.6 |
| 20260507000919 | 9 | 241 | 1.6 | 3.2 | 0.00 | 0.33 | 0.33 | 88 | 1013.3 |
| 20260507000414 | 10 | 231 | 1.6 | 4.8 | 0.00 | 0.33 | 0.33 | 88 | 1013.1 |
| 20260506235910 | 10 | 251 | 0.0 | 3.2 | 0.00 | 0.33 | 0.33 | 88 | 1013.4 |
| 20260506235408 | 10 | 239 | 0.0 | 3.2 | 0.00 | 0.33 | 0.33 | 88 | 1013.6 |
| 20260506234903 | 10 | 239 | 0.0 | 1.6 | 0.00 | 0.33 | 0.33 | 88 | 1013.5 |
| 20260506234402 | 10 | 239 | 3.2 | 3.2 | 0.00 | 0.33 | 0.33 | 88 | 1013.2 |
| 20260506233859 | 10 | 251 | 0.0 | 1.6 | 0.00 | 0.33 | 0.33 | 88 | 1013.2 |
| 20260506233354 | 10 | 247 | 0.0 | 1.6 | 0.00 | 0.33 | 0.33 | 88 | 1013.2 |
| 20260506232852 | 10 | 242 | 0.0 | 0.0 | 0.00 | 0.33 | 0.33 | 88 | 1013.3 |
| 20260506232347 | 10 | 255 | 0.0 | 4.8 | 0.00 | 0.33 | 0.33 | 88 | 1013.0 |
| 20260506231839 | 10 | 244 | 1.6 | 3.2 | 0.00 | 0.33 | 0.33 | 88 | 1012.7 |
| 20260506231337 | 10 | 236 | 1.6 | 3.2 | 0.00 | 0.33 | 0.33 | 88 | 1013.0 |
| 20260506230834 | 10 | 248 | 1.6 | 4.8 | 0.00 | 0.33 | 0.33 | 88 | 1012.7 |
| 20260506230331 | 10 | 240 | 0.0 | 3.2 | 0.00 | 0.33 | 0.33 | 88 | 1012.7 |
| 20260506225827 | 10 | 265 | 4.8 | 4.8 | 0.00 | 0.33 | 0.33 | 88 | 1012.7 |
| 20260506225324 | 10 | 284 | 4.8 | 6.4 | 0.00 | 0.33 | 0.33 | 88 | 1012.7 |
| 20260506224821 | 10 | 241 | 4.8 | 6.4 | 0.00 | 0.33 | 0.33 | 88 | 1012.4 |
| 20260506224318 | 10 | 234 | 1.6 | 11.3 | 0.00 | 0.33 | 0.33 | 88 | 1012.8 |
| 20260506223814 | 10 | 275 | 1.6 | 4.8 | 0.00 | 0.33 | 0.33 | 88 | 1012.5 |
| 20260506223309 | 10 | 290 | 3.2 | 11.3 | 0.00 | 0.33 | 0.33 | 89 | 1012.7 |
| 20260506222806 | 10 | 230 | 4.8 | 11.3 | 0.00 | 0.33 | 0.33 | 89 | 1012.6 |
| 20260506222305 | 10 | 291 | 3.2 | 11.3 | 0.00 | 0.33 | 0.33 | 90 | 1012.6 |
| 20260506221800 | 10 | 252 | 1.6 | 3.2 | 0.00 | 0.33 | 0.33 | 91 | 1012.5 |
| 20260506221257 | 10 | 260 | 3.2 | 6.4 | 0.00 | 0.33 | 0.33 | 90 | 1012.6 |
| 20260506220755 | 10 | 290 | 3.2 | 4.8 | 0.00 | 0.33 | 0.33 | 91 | 1012.4 |
| 20260506220249 | 10 | 237 | 3.2 | 6.4 | 0.00 | 0.33 | 0.33 | 90 | 1012.5 |
| 20260506215746 | 10 | 274 | 4.8 | 11.3 | 0.00 | 0.33 | 0.33 | 91 | 1012.5 |
| 20260506215242 | 10 | 238 | 4.8 | 9.7 | 0.00 | 0.33 | 0.33 | 91 | 1012.4 |
| 20260506214738 | 10 | 240 | 0.0 | 12.9 | 0.00 | 0.33 | 0.33 | 90 | 1012.0 |
| 20260506214236 | 10 | 282 | 3.2 | 4.8 | 0.00 | 0.33 | 0.33 | 91 | 1012.1 |
| 20260506213734 | 10 | 312 | 3.2 | 6.4 | 0.00 | 0.33 | 0.33 | 91 | 1011.8 |
| 20260506213231 | 10 | 238 | 1.6 | 4.8 | 0.00 | 0.33 | 0.33 | 91 | 1012.0 |
| 20260506212728 | 10 | 226 | 3.2 | 6.4 | 0.00 | 0.33 | 0.33 | 92 | 1011.8 |
| 20260506212223 | 10 | 238 | 3.2 | 4.8 | 0.00 | 0.33 | 0.33 | 93 | 1011.8 |
| 20260506211714 | 10 | 238 | 0.0 | 3.2 | 0.00 | 0.33 | 0.33 | 93 | 1011.9 |
| 20260506211210 | 10 | 238 | 3.2 | 4.8 | 0.00 | 0.33 | 0.33 | 94 | 1011.5 |
| 20260506210707 | 10 | 243 | 1.6 | 4.8 | 0.00 | 0.33 | 0.33 | 95 | 1011.6 |
| 20260506210204 | 10 | 249 | 3.2 | 6.4 | 0.00 | 0.33 | 0.33 | 95 | 1011.5 |
| 20260506205702 | 10 | 247 | 0.0 | 1.6 | 0.00 | 0.33 | 0.33 | 95 | 1011.4 |
| 20260506205201 | 10 | 233 | 1.6 | 3.2 | 0.00 | 0.33 | 0.33 | 95 | 1011.3 |
| 20260506204659 | 10 | 281 | 3.2 | 6.4 | 0.00 | 0.33 | 0.33 | 95 | 1011.5 |
| 20260506204156 | 10 | 265 | 3.2 | 4.8 | 0.00 | 0.33 | 0.33 | 95 | 1011.5 |
| 20260506203654 | 10 | 223 | 0.0 | 9.7 | 0.00 | 0.33 | 0.33 | 95 | 1011.5 |
| 20260506203151 | 10 | 257 | 3.2 | 6.4 | 0.00 | 0.33 | 0.33 | 95 | 1011.3 |
| 20260506202649 | 10 | 269 | 3.2 | 6.4 | 0.00 | 0.33 | 0.33 | 95 | 1011.2 |
| 20260506202145 | 10 | 265 | 1.6 | 6.4 | 0.00 | 0.33 | 0.33 | 95 | 1011.2 |
| 20260506201642 | 10 | 213 | 6.4 | 9.7 | 0.00 | 0.33 | 0.33 | 95 | 1011.3 |
| 20260506201138 | 10 | 259 | 0.0 | 3.2 | 0.00 | 0.33 | 0.33 | 96 | 1011.3 |
| 20260506200635 | 10 | 245 | 1.6 | 9.7 | 0.00 | 0.33 | 0.33 | 96 | 1011.1 |
| 20260506200132 | 10 | 276 | 3.2 | 6.4 | 0.00 | 0.33 | 0.33 | 95 | 1011.1 |
| 20260506195628 | 10 | 288 | 4.8 | 9.7 | 0.00 | 0.33 | 0.33 | 95 | 1011.3 |
| 20260506195125 | 11 | 303 | 4.8 | 4.8 | 0.00 | 0.33 | 0.33 | 94 | 1011.2 |
| 20260506194622 | 11 | 223 | 4.8 | 6.4 | 0.00 | 0.33 | 0.33 | 94 | 1011.3 |
| 20260506194118 | 11 | 241 | 3.2 | 4.8 | 0.00 | 0.33 | 0.33 | 93 | 1011.1 |
| 20260506193616 | 11 | 231 | 4.8 | 4.8 | 0.00 | 0.33 | 0.33 | 93 | 1011.1 |
| 20260506193114 | 11 | 256 | 1.6 | 6.4 | 0.00 | 0.33 | 0.33 | 95 | 1011.2 |
| 20260506192610 | 11 | 242 | 0.0 | 9.7 | 0.00 | 0.33 | 0.33 | 96 | 1011.2 |
| 20260506192106 | 11 | 207 | 4.8 | 6.4 | 0.00 | 0.33 | 0.33 | 96 | 1011.2 |
| 20260506191603 | 10 | 229 | 1.6 | 9.7 | 0.00 | 0.33 | 0.33 | 96 | 1011.2 |
| 20260506191058 | 10 | 229 | 1.6 | 11.3 | 0.00 | 0.33 | 0.33 | 95 | 1011.1 |
| 20260506190556 | 11 | 240 | 4.8 | 11.3 | 0.00 | 0.33 | 0.33 | 94 | 1011.0 |
| 20260506190053 | 11 | 199 | 6.4 | 11.3 | 0.00 | 0.33 | 0.33 | 95 | 1011.0 |